Tiempo atmosférico en la estación meteorológica de Algarrobo, Málaga (80 m.)



Fecha
DESCASC
Temp. máxima en grados centígrados (hora)
DESCASC
Temp. mínima en grados centígrados (hora)
DESCASC
Temp. media en grados centígrados
DESCASC
Racha de viento máxima en m/sg (hora)
DESCASC
Velocidad máxima media en intervalos de 10 minutos(hora)
DESCASC
Precipitaciones diarias en mm
DESCASC
Precipitaciones de 00:00 a 06:00 en mm
DESCASC
Precipitaciones de 06:00 a 12:00 en mm
DESCASC
Precipitaciones de 12:00 a 18:00 en mm
DESCASC
Precipitaciones de 18:00 a 24:00 en mm
DESCASC
19-01-2020 18.6 (14:50) 11.6 (00:00) 15.1 16.11 (04:40) 10.28 (04:40) 0 0 0 0 0
17-01-2020 21.6 (14:50) 7.8 (00:00) 14.7 10 (14:20) 6.11 (13:10) 0 0 0 0 0
23-01-2020 16.9 (14:40) 12.2 (00:00) 14.5 11.67 (12:50) 5.56 (12:50) 0.2 0.2 0 0 0
27-12-2019 18.8 (12:20) 9.2 (00:00) 14 5.28 (16:30) 2.78 (16:30) 0 0 0 0 0
28-12-2019 17.3 (12:40) 9.7 (00:00) 13.5 4.44 (13:50) 2.78 (14:00) 0 0 0 0 0
24-01-2020 17 (13:50) 10 (00:00) 13.5 8.06 (20:00) 4.72 (14:50) 4.8 4.8 0 0 0
29-12-2019 17 (13:30) 9.9 (00:00) 13.4 6.94 (13:30) 3.89 (13:30) 0 0 0 0 0
09-01-2020 16.6 (15:00) 10.1 (00:00) 13.4 4.17 (15:00) 2.78 (15:00) 0 0 0 0 0
18-01-2020 16.5 (14:50) 10.2 (00:00) 13.3 4.44 (20:50) 3.06 (20:50) 0.4 0 0 0.4 0
05-01-2020 17.1 (13:10) 9 (00:00) 13.1 5.83 (14:20) 4.17 (14:10) 0 0 0 0 0
10-01-2020 18.2 (15:30) 7.4 (00:00) 12.8 5.56 (17:30) 3.06 (16:20) 0 0 0 0 0
11-01-2020 17.2 (14:40) 7.6 (00:00) 12.4 4.17 (14:30) 2.78 (12:40) 0 0 0 0 0
06-01-2020 16.6 (13:10) 8.2 (00:00) 12.4 4.72 (14:20) 3.06 (14:20) 0 0 0 0 0
01-01-2020 16.7 (13:10) 8 (00:00) 12.4 3.61 (14:00) 2.5 (03:10) 0 0 0 0 0
02-01-2020 16.4 (15:10) 8.4 (00:00) 12.4 4.44 (14:00) 2.78 (14:50) 0 0 0 0 0
31-12-2019 16.7 (13:40) 7.9 (00:00) 12.3 6.67 (12:30) 3.89 (12:30) 0 0 0 0 0
16-01-2020 18 (12:50) 6.4 (00:00) 12.2 4.72 (14:20) 3.33 (14:00) 0 0 0 0 0
15-01-2020 17.6 (15:10) 6.6 (00:00) 12.1 4.17 (06:20) 2.5 (13:20) 0 0 0 0 0
04-01-2020 15.7 (14:20) 8.4 (00:00) 12 6.67 (14:00) 3.33 (14:00) 0 0 0 0 0
12-01-2020 16.5 (15:00) 7.4 (00:00) 12 4.72 (14:10) 3.06 (13:10) 0 0 0 0 0
03-01-2020 15.9 (12:30) 8.2 (00:00) 12 4.17 (13:30) 2.5 (12:50) 0 0 0 0 0
13-01-2020 16.2 (13:40) 7.5 (00:00) 11.9 3.89 (06:00) 2.5 (05:20) 0 0 0 0 0
25-01-2020 13.9 (17:20) 9.5 (00:00) 11.7 12.22 (07:20) 8.61 (07:20) 24 1.6 12.8 7 2.6
07-01-2020 16.5 (13:20) 6.6 (00:00) 11.5 3.89 (15:50) 2.5 (13:40) 0 0 0 0 0
21-01-2020 14.2 (13:50) 7.6 (00:00) 10.9 6.11 (12:10) 3.89 (12:20) 0.6 0 0 0 0.6
08-01-2020 15.8 (15:50) 5.9 (00:00) 10.9 3.89 (17:40) 2.78 (16:40) 0 0 0 0 0
20-01-2020 12.4 (15:10) 9 (00:00) 10.7 11.67 (04:20) 5 (03:40) 0 0 0 0 0
22-01-2020 12.2 (23:59) 9 (00:00) 10.6 7.5 (07:10) 3.61 (11:00) 28.8 3 8 17.8 0
14-01-2020 16.5 (13:40) 4.2 (00:00) 10.3 6.67 (16:00) 4.44 (15:50) 0 0 0 0 0
30-12-2019 -- (--) -- (--) -- -- (--) -- (--) -- 0 0 -- 0

Gráficas

Temp. máximas Temp. mínimas Temp. medias Precipitaciones Rachas de viento máximas Velocidades máximas media en intervalos de 10 minutos

Datos horarios

Fecha y hora oficial Temperatura (ºC) Velocidad del viento (km/h) Dirección del viento Racha (km/h) Dirección de racha Precipitación (mm) Presión (hPa) Tendencia (hPa) Humedad (%)
2020-01-25 23:00:00 10.7 2 Norte 4 Este 0.8 -- -- 94
2020-01-25 22:00:00 11.1 0 Calma 8 Nordeste 0.2 -- -- 93
2020-01-25 21:00:00 11.3 4 Nordeste 8 Norte 1.2 -- -- 92
2020-01-25 20:00:00 11.9 5 Noroeste 9 Noroeste 0.4 -- -- 91
2020-01-25 19:00:00 12.7 3 Sur 21 Sur 0 -- -- 86
2020-01-25 18:00:00 13 3 Este 8 Sudeste 0 -- -- 85
2020-01-25 17:00:00 13.5 4 Nordeste 10 Nordeste 0.2 -- -- 88
2020-01-25 16:00:00 12.9 4 Nordeste 9 Nordeste 0.2 -- -- 93
2020-01-25 15:00:00 12.4 4 Nordeste 15 Oeste 5 -- -- 94
2020-01-25 14:00:00 12.9 6 Sudoeste 12 Norte 1 -- -- 91
2020-01-25 13:00:00 12.1 6 Norte 18 Oeste 0.6 -- -- 92
2020-01-25 12:00:00 11.6 0 Calma 7 Este 0.2 -- -- 94
2020-01-25 11:00:00 10.5 3 Sudoeste 15 Norte 0.2 -- -- 94
2020-01-25 10:00:00 10 4 Nordeste 16 Noroeste 0.4 -- -- 93
2020-01-25 09:00:00 10 7 Nordeste 21 Norte 8.2 -- -- 93
2020-01-25 08:00:00 9.6 10 Norte 44 Noroeste 3.8 -- -- 89
2020-01-25 07:00:00 12.6 7 Noroeste 22 Este 0 -- -- 80
2020-01-25 06:00:00 12.7 8 Sudeste 32 Este 0 -- -- 82
2020-01-25 05:00:00 12.6 10 Este 24 Este 0.2 -- -- 89
2020-01-25 04:00:00 12.3 6 Este 18 Sudeste 0.2 -- -- 89
2020-01-25 03:00:00 12.2 3 Este 12 Este 0.2 -- -- 91
2020-01-25 02:00:00 12 3 Norte 17 Oeste 1 -- -- 89
2020-01-25 01:00:00 12.9 2 Norte 13 Este 0 -- -- 81
2020-01-25 00:00:00 13.3 4 Este 16 Nordeste 0 -- -- 72
2020-01-24 23:00:00 13.4 6 Este 18 Nordeste 0 -- -- 75
2020-01-24 22:00:00 13 5 Este 18 Este 0 -- -- 89
2020-01-24 21:00:00 13.2 8 Sudeste 27 Sudeste 0 -- -- 89
2020-01-24 20:00:00 13.7 13 Sudeste 29 Sudeste 0 -- -- 86
2020-01-24 19:00:00 13.8 8 Sudeste 26 Sudeste 0 -- -- 81
2020-01-24 18:00:00 14.2 7 Sudeste 22 Este 0 -- -- 78
2020-01-24 17:00:00 14.8 12 Sudeste 28 Este 0 -- -- 76
2020-01-24 16:00:00 15.7 10 Sudeste 26 Sudeste 0 -- -- 77
2020-01-24 15:00:00 15.5 15 Sudeste 26 Sudeste 0 -- -- 73
2020-01-24 14:00:00 16.9 13 Sudeste 27 Sudeste 0 -- -- 64
2020-01-24 13:00:00 14.9 9 Sudeste 16 Sudeste 0 -- -- 74
2020-01-24 12:00:00 14.7 9 Sur 15 Sur 0 -- -- 74
2020-01-24 11:00:00 13.8 3 Sudoeste 6 Sudoeste 0 -- -- 84
2020-01-24 10:00:00 11.2 2 Norte 5 Norte 0 -- -- 92
2020-01-24 09:00:00 10.2 3 Norte 8 Oeste 0 -- -- 90
2020-01-24 08:00:00 10.1 4 Nordeste 16 Noroeste 0 -- -- 89
2020-01-24 07:00:00 10.2 6 Norte 12 Norte 0 -- -- 90
2020-01-24 06:00:00 10.1 5 Norte 10 Nordeste 0 -- -- 90
2020-01-24 05:00:00 10.4 5 Nordeste 12 Norte 0 -- -- 91
2020-01-24 04:00:00 10.7 4 Nordeste 10 Nordeste 2.4 -- -- 91
2020-01-24 03:00:00 11.8 5 Sudoeste 23 Sur 1.2 -- -- 85
2020-01-24 02:00:00 13 14 Sur 25 Sur 0.8 -- -- 83
2020-01-24 01:00:00 13.2 12 Sur 23 Sur 0.4 -- -- 87
2020-01-24 00:00:00 13.7 5 Este 22 Sur 0 -- -- 85
2020-01-23 23:00:00 13.4 2 Este 14 Sudeste 0 -- -- 79
2020-01-23 22:00:00 13.9 7 Sudeste 17 Este 0 -- -- 69
2020-01-23 21:00:00 13.6 9 Este 30 Sudeste 0 -- -- 79
2020-01-23 20:00:00 14 10 Este 34 Este 0 -- -- 80
2020-01-23 19:00:00 14.1 10 Sudeste 24 Sudeste 0 -- -- 79
2020-01-23 18:00:00 14.2 10 Sudeste 28 Sudeste 0 -- -- 79
2020-01-23 17:00:00 14.5 15 Sudeste 31 Sudeste 0 -- -- 76
2020-01-23 16:00:00 15.2 13 Sudeste 31 Sudeste 0 -- -- 76
2020-01-23 15:00:00 15.9 17 Sudeste 37 Sudeste 0 -- -- 70
2020-01-23 14:00:00 16.3 17 Sudeste 39 Sudeste 0 -- -- 69
2020-01-23 13:00:00 15.9 20 Sudeste 42 Este 0 -- -- 70
2020-01-23 12:00:00 15.5 17 Sudeste 32 Sudeste 0 -- -- 67
2020-01-23 11:00:00 15.2 18 Sudeste 35 Este 0 -- -- 57
2020-01-23 10:00:00 14.6 9 Sudeste 23 Sudeste 0 -- -- 61
2020-01-23 09:00:00 13.6 9 Sudeste 26 Sudeste 0 -- -- 66
2020-01-23 08:00:00 13.1 8 Este 29 Este 0 -- -- 69
2020-01-23 07:00:00 13 12 Sudeste 26 Este 0 -- -- 74
2020-01-23 06:00:00 12.8 13 Este 30 Este 0.2 -- -- 77
2020-01-23 05:00:00 12.7 11 Este 28 Nordeste 0 -- -- 79
2020-01-23 04:00:00 12.6 9 Este 27 Este 0 -- -- 79
2020-01-23 03:00:00 12.8 9 Este 25 Este 0 -- -- 76
2020-01-23 02:00:00 12.7 6 Este 23 Este 0 -- -- 75
2020-01-23 01:00:00 12.6 5 Este 22 Este 0 -- -- 75
2020-01-23 00:00:00 12.2 7 Este 18 Sudeste 0 -- -- 74
2020-01-22 23:00:00 12.1 8 Este 21 Este 0 -- -- 77
2020-01-22 22:00:00 11.7 7 Este 19 Este 0 -- -- 78
2020-01-22 21:00:00 9.4 6 Este 15 Sudeste 0 -- -- 89
2020-01-22 20:00:00 10.7 2 Este 11 Sudeste 0 -- -- 85
2020-01-22 19:00:00 10.2 3 Nordeste 6 Norte 0 -- -- 89
2020-01-22 18:00:00 11.1 4 Nordeste 24 Este 0.8 -- -- 84
2020-01-22 17:00:00 10.3 10 Nordeste 24 Este 2.6 -- -- 94
2020-01-22 16:00:00 10 4 Este 19 Norte 4.6 -- -- 95
2020-01-22 15:00:00 9.7 6 Norte 15 Norte 4.2 -- -- 94
2020-01-22 14:00:00 9.7 9 Norte 14 Norte 3.2 -- -- 94
2020-01-22 13:00:00 9.6 6 Norte 14 Norte 2.4 -- -- 94
2020-01-22 12:00:00 9.5 10 Norte 17 Norte 2.6 -- -- 94
2020-01-22 11:00:00 9.4 13 Noroeste 21 Noroeste 1.2 -- -- 94
2020-01-22 10:00:00 9.5 5 Nordeste 15 Norte 2 -- -- 94
2020-01-22 09:00:00 9.3 10 Norte 17 Norte 0.8 -- -- 94
2020-01-22 08:00:00 9 3 Norte 27 Oeste 0.2 -- -- 93
2020-01-22 07:00:00 9.2 5 Norte 17 Oeste 1.2 -- -- 94
2020-01-22 06:00:00 9.2 5 Norte 15 Norte 0.8 -- -- 94
2020-01-22 05:00:00 9.3 3 Norte 6 Norte 0.2 -- -- 94
2020-01-22 04:00:00 9.3 3 Norte 11 Noroeste 0 -- -- 93
2020-01-22 03:00:00 9.3 4 Norte 8 Norte 1.4 -- -- 92
2020-01-22 02:00:00 9.5 5 Norte 9 Norte 0.4 -- -- 90
2020-01-22 01:00:00 9.8 2 Norte 4 Norte 0.2 -- -- 86
2020-01-22 00:00:00 10.2 3 Este 12 Sudeste 0 -- -- 77
2020-01-21 23:00:00 9.9 4 Nordeste 12 Este 0 -- -- 85
2020-01-21 22:00:00 10.2 4 Este 15 Este 0.6 -- -- 85
2020-01-21 21:00:00 10.9 6 Sudeste 14 Sudeste 0 -- -- 82
2020-01-21 20:00:00 11.1 7 Este 18 Sudeste 0 -- -- 84
2020-01-21 19:00:00 11.8 11 Sur 17 Sudeste 0 -- -- 79
2020-01-21 18:00:00 12.4 8 Sur 13 Sur 0 -- -- 79
2020-01-21 17:00:00 13 6 Sur 14 Sudoeste 0 -- -- 72
2020-01-21 16:00:00 13.3 5 Sudeste 14 Sur 0 -- -- 62
2020-01-21 15:00:00 14.1 7 Sur 16 Sur 0 -- -- 61
2020-01-21 14:00:00 14 9 Sur 16 Sur 0 -- -- 61
2020-01-21 13:00:00 13.9 10 Sur 22 Sur 0 -- -- 60
2020-01-21 12:00:00 14.1 9 Sudeste 16 Sur 0 -- -- 61
2020-01-21 11:00:00 12.2 4 Sudeste 10 Este 0 -- -- 64
2020-01-21 10:00:00 10 5 Este 9 Nordeste 0 -- -- 69
2020-01-21 09:00:00 9.5 3 Este 8 Oeste 0 -- -- 71
2020-01-21 08:00:00 9.2 2 Sudeste 10 Norte 0 -- -- 72
2020-01-21 07:00:00 9.1 4 Norte 9 Noroeste 0 -- -- 68
2020-01-21 06:00:00 8.8 3 Norte 9 Norte 0 -- -- 70
2020-01-21 05:00:00 8.1 5 Norte 12 Norte 0 -- -- 73
2020-01-21 04:00:00 7.6 3 Nordeste 9 Norte 0 -- -- 75
2020-01-21 03:00:00 8.2 0 Calma 12 Norte 0 -- -- 77
2020-01-21 02:00:00 8.4 5 Norte 13 Nordeste 0 -- -- 75
2020-01-21 01:00:00 8.8 3 Nordeste 9 Nordeste 0 -- -- 75
2020-01-21 00:00:00 9.5 5 Norte 10 Norte 0 -- -- 72
2020-01-20 23:00:00 9.5 7 Norte 12 Norte 0 -- -- 73
2020-01-20 22:00:00 9.9 4 Nordeste 11 Noroeste 0 -- -- 70
2020-01-20 21:00:00 9.6 5 Norte 12 Norte 0 -- -- 70
2020-01-20 20:00:00 9.5 7 Norte 10 Norte 0 -- -- 70
2020-01-20 19:00:00 10.2 2 Norte 9 Norte 0 -- -- 69
2020-01-20 18:00:00 11.6 3 Norte 8 Norte 0 -- -- 66
2020-01-20 17:00:00 11.8 3 Noroeste 13 Sur 0 -- -- 60
2020-01-20 16:00:00 11.9 8 Sur 13 Sur 0 -- -- 58
2020-01-20 15:00:00 12.3 5 Sur 11 Sur 0 -- -- 48
2020-01-20 14:00:00 11.8 3 Noroeste 14 Noroeste 0 -- -- 52
2020-01-20 13:00:00 11.9 7 Noroeste 14 Noroeste 0 -- -- 53
2020-01-20 12:00:00 11.7 4 Nordeste 25 Nordeste 0 -- -- 47
2020-01-20 11:00:00 11.4 11 Nordeste 26 Este 0 -- -- 46
2020-01-20 10:00:00 9.2 6 Norte 17 Noroeste 0 -- -- 61
2020-01-20 09:00:00 9.2 11 Noroeste 24 Norte 0 -- -- 62
2020-01-20 08:00:00 10.1 10 Nordeste 28 Nordeste 0 -- -- 55
2020-01-20 07:00:00 10.8 12 Nordeste 33 Nordeste 0 -- -- 47
2020-01-20 06:00:00 11.1 14 Nordeste 37 Nordeste 0 -- -- 47
2020-01-20 05:00:00 11.2 15 Nordeste 42 Nordeste 0 -- -- 47
2020-01-20 04:00:00 10.8 14 Nordeste 35 Nordeste 0 -- -- 50
2020-01-20 03:00:00 11.3 14 Nordeste 28 Nordeste 0 -- -- 49
2020-01-20 02:00:00 10.5 9 Norte 23 Norte 0 -- -- 53
2020-01-20 01:00:00 11.2 9 Nordeste 26 Nordeste 0 -- -- 51
2020-01-20 00:00:00 11.6 8 Este 35 Nordeste 0 -- -- 65
2020-01-19 23:00:00 12.2 17 Nordeste 47 Nordeste 0 -- -- 47
2020-01-19 22:00:00 12.8 16 Nordeste 44 Norte 0 -- -- 45
2020-01-19 21:00:00 12.9 13 Nordeste 36 Nordeste 0 -- -- 50
2020-01-19 20:00:00 12.6 13 Norte 38 Este 0 -- -- 51
2020-01-19 19:00:00 12.6 5 Norte 33 Noroeste 0 -- -- 51
2020-01-19 18:00:00 14.2 10 Norte 31 Nordeste 0 -- -- 47
2020-01-19 17:00:00 15.7 6 Norte 28 Este 0 -- -- 44
2020-01-19 16:00:00 17.1 13 Nordeste 28 Este 0 -- -- 42
2020-01-19 15:00:00 17.3 11 Norte 31 Norte 0 -- -- 38
2020-01-19 14:00:00 18 12 Nordeste 32 Norte 0 -- -- 37
2020-01-19 13:00:00 17.1 8 Noroeste 34 Norte 0 -- -- 40
2020-01-19 12:00:00 16.2 21 Norte 48 Norte 0 -- -- 43
2020-01-19 11:00:00 14.7 28 Norte 51 Noroeste 0 -- -- 54
2020-01-19 10:00:00 13.5 32 Noroeste 49 Noroeste 0 -- -- 57
2020-01-19 09:00:00 12.3 21 Noroeste 46 Noroeste 0 -- -- 61
2020-01-19 08:00:00 12.9 25 Noroeste 58 Noroeste 0 -- -- 54
2020-01-19 07:00:00 13.4 19 Noroeste 35 Noroeste 0 -- -- 56
2020-01-19 06:00:00 14 28 Noroeste 47 Noroeste 0 -- -- 57
2020-01-19 05:00:00 14.3 26 Noroeste 58 Noroeste 0 -- -- 57
2020-01-19 04:00:00 14.1 15 Noroeste 45 Noroeste 0 -- -- 64
2020-01-19 03:00:00 15.6 27 Noroeste 44 Noroeste 0 -- -- 58
2020-01-19 02:00:00 12.8 8 Noroeste 17 Noroeste 0 -- -- 86
2020-01-19 01:00:00 12.9 9 Norte 18 Noroeste 0 -- -- 84
2020-01-19 00:00:00 12.8 4 Noroeste 11 Norte 0 -- -- 83
2020-01-18 23:00:00 12.8 4 Norte 12 Noroeste 0 -- -- 82
2020-01-18 22:00:00 13.7 6 Norte 12 Noroeste 0 -- -- 78
2020-01-18 21:00:00 13.9 8 Noroeste 16 Noroeste 0 -- -- 77
2020-01-18 20:00:00 13.8 2 Noroeste 4 Noroeste 0 -- -- 83
2020-01-18 19:00:00 14.3 2 Noroeste 5 Noroeste 0 -- -- 79
2020-01-18 18:00:00 15 2 Oeste 5 Oeste 0 -- -- 74
2020-01-18 17:00:00 15.2 2 Oeste 7 Sudoeste 0.2 -- -- 75
2020-01-18 16:00:00 15.4 3 Noroeste 8 Oeste 0 -- -- 74
2020-01-18 15:00:00 16.2 4 Sudoeste 6 Sudoeste 0 -- -- 67
2020-01-18 14:00:00 15.3 4 Norte 5 Norte 0 -- -- 76
2020-01-18 13:00:00 14.6 0 Calma 6 Noroeste 0.2 -- -- 78
2020-01-18 12:00:00 14.9 2 Norte 11 Noroeste 0 -- -- 72
2020-01-18 11:00:00 15.4 3 Oeste 7 Norte 0 -- -- 60
2020-01-18 10:00:00 13 2 Norte 11 Norte 0 -- -- 70
2020-01-18 09:00:00 10.8 3 Nordeste 8 Noroeste 0 -- -- 73
2020-01-18 08:00:00 10.8 4 Norte 9 Norte 0 -- -- 70
2020-01-18 07:00:00 10.2 4 Norte 8 Norte 0 -- -- 73
2020-01-18 06:00:00 10.9 5 Norte 10 Norte 0 -- -- 66
2020-01-18 05:00:00 11.4 0 Calma 12 Norte 0 -- -- 72
2020-01-18 04:00:00 11.5 6 Norte 12 Norte 0 -- -- 63
2020-01-18 03:00:00 11.3 6 Nordeste 12 Norte 0 -- -- 70
2020-01-18 02:00:00 11.5 6 Norte 9 Norte 0 -- -- 71
2020-01-18 01:00:00 11.9 6 Norte 9 Norte 0 -- -- 57
2020-01-18 00:00:00 11.3 5 Nordeste 10 Norte 0 -- -- 61
2020-01-17 23:00:00 11.2 5 Norte 9 Norte 0 -- -- 68
2020-01-17 22:00:00 11.2 5 Norte 8 Nordeste 0 -- -- 72
2020-01-17 21:00:00 11.9 3 Este 12 Norte 0 -- -- 72
2020-01-17 20:00:00 13.1 5 Norte 14 Nordeste 0 -- -- 72
2020-01-17 19:00:00 14.7 2 Norte 14 Este 0 -- -- 78
2020-01-17 18:00:00 16.4 9 Noroeste 29 Sudoeste 0 -- -- 78
2020-01-17 17:00:00 17.9 12 Sudoeste 26 Sudoeste 0 -- -- 67
2020-01-17 16:00:00 21 12 Oeste 27 Noroeste 0 -- -- 41
2020-01-17 15:00:00 21.5 20 Noroeste 36 Noroeste 0 -- -- 42
2020-01-17 14:00:00 21.3 21 Noroeste 35 Noroeste 0 -- -- 44
2020-01-17 13:00:00 21.2 19 Noroeste 29 Noroeste 0 -- -- 45
2020-01-17 12:00:00 20.2 15 Noroeste 31 Noroeste 0 -- -- 47
2020-01-17 11:00:00 17.3 13 Noroeste 22 Noroeste 0 -- -- 46
2020-01-17 10:00:00 13.9 13 Noroeste 24 Noroeste 0 -- -- 49
2020-01-17 09:00:00 10.5 15 Norte 21 Norte 0 -- -- 56
2020-01-17 08:00:00 10.6 7 Norte 21 Noroeste 0 -- -- 57
2020-01-17 07:00:00 8.4 6 Norte 12 Norte 0 -- -- 68
2020-01-17 06:00:00 8.2 6 Norte 12 Nordeste 0 -- -- 72
2020-01-17 05:00:00 8.1 5 Norte 11 Norte 0 -- -- 74
2020-01-17 04:00:00 8.9 6 Norte 11 Norte 0 -- -- 69
2020-01-17 03:00:00 8.9 5 Norte 12 Norte 0 -- -- 69
2020-01-17 02:00:00 8.9 8 Norte 14 Norte 0 -- -- 71
2020-01-17 01:00:00 9.4 4 Norte 9 Norte 0 -- -- 72
2020-01-17 00:00:00 8.8 5 Norte 9 Norte 0 -- -- 75
2020-01-16 23:00:00 8.9 4 Nordeste 14 Nordeste 0 -- -- 74
2020-01-16 22:00:00 9.9 4 Norte 15 Norte 0 -- -- 74
2020-01-16 21:00:00 9.9 5 Norte 9 Norte 0 -- -- 87
2020-01-16 20:00:00 11 4 Norte 8 Norte 0 -- -- 89
2020-01-16 19:00:00 13.1 2 Norte 4 Nordeste 0 -- -- 81
2020-01-16 18:00:00 16.2 2 Sudoeste 6 Sudoeste 0 -- -- 75
2020-01-16 17:00:00 17.1 4 Sur 12 Sudoeste 0 -- -- 71
2020-01-16 16:00:00 17 8 Sudoeste 13 Sudoeste 0 -- -- 72
2020-01-16 15:00:00 17.1 9 Sur 17 Sudoeste 0 -- -- 69
2020-01-16 14:00:00 17.6 12 Sur 17 Sur 0 -- -- 61
2020-01-16 13:00:00 17.9 9 Sur 13 Sur 0 -- -- 58
2020-01-16 12:00:00 17.2 5 Sudoeste 8 Sudoeste 0 -- -- 58
2020-01-16 11:00:00 15.2 2 Sudoeste 4 Sudoeste 0 -- -- 57
2020-01-16 10:00:00 10.2 0 Calma 9 Norte 0 -- -- 83
2020-01-16 09:00:00 7.2 4 Norte 8 Norte 0 -- -- 86
2020-01-16 08:00:00 6.6 5 Norte 8 Norte 0 -- -- 90
2020-01-16 07:00:00 6.6 4 Norte 9 Norte 0 -- -- 88
2020-01-16 06:00:00 7.5 4 Norte 8 Norte 0 -- -- 83
2020-01-16 05:00:00 7.6 4 Norte 8 Norte 0 -- -- 86
2020-01-16 04:00:00 7.6 5 Norte 8 Norte 0 -- -- 85
2020-01-16 03:00:00 8 5 Norte 13 Norte 0 -- -- 78
2020-01-16 02:00:00 9 8 Norte 14 Norte 0 -- -- 75
2020-01-16 01:00:00 8.5 8 Norte 11 Norte 0 -- -- 84
2020-01-16 00:00:00 9 4 Norte 9 Norte 0 -- -- 88
2020-01-15 23:00:00 8.9 5 Norte 6 Norte 0 -- -- 91
2020-01-15 22:00:00 9.4 3 Nordeste 8 Este 0 -- -- 89
2020-01-15 21:00:00 10.5 4 Nordeste 8 Norte 0 -- -- 85
2020-01-15 20:00:00 10.4 5 Nordeste 9 Norte 0 -- -- 85
2020-01-15 19:00:00 12.5 2 Norte 6 Este 0 -- -- 76
2020-01-15 18:00:00 16.3 5 Sur 6 Sur 0 -- -- 66
2020-01-15 17:00:00 17.1 4 Sur 10 Sudoeste 0 -- -- 64
2020-01-15 16:00:00 17.4 3 Oeste 12 Sudoeste 0 -- -- 63
2020-01-15 15:00:00 17.3 6 Sudoeste 14 Sudoeste 0 -- -- 62
2020-01-15 14:00:00 17.4 4 Sur 15 Sur 0 -- -- 55
2020-01-15 13:00:00 17.5 8 Sur 13 Sur 0 -- -- 53
2020-01-15 12:00:00 16.9 6 Sur 10 Sur 0 -- -- 50
2020-01-15 11:00:00 14.5 7 Sur 10 Sur 0 -- -- 58
2020-01-15 10:00:00 8.9 4 Norte 7 Norte 0 -- -- 79
2020-01-15 09:00:00 6.6 3 Norte 7 Nordeste 0 -- -- 79
2020-01-15 08:00:00 6.8 4 Nordeste 9 Norte 0 -- -- 76
2020-01-15 07:00:00 7.6 5 Norte 15 Norte 0 -- -- 72
2020-01-15 06:00:00 7.1 6 Norte 12 Norte 0 -- -- 76
2020-01-15 05:00:00 8.2 3 Norte 12 Nordeste 0 -- -- 70
2020-01-15 04:00:00 7.9 4 Norte 10 Norte 0 -- -- 71
2020-01-15 03:00:00 9 6 Nordeste 13 Nordeste 0 -- -- 62
2020-01-15 02:00:00 8.8 4 Norte 14 Norte 0 -- -- 66
2020-01-15 01:00:00 8.1 6 Norte 10 Norte 0 -- -- 74
2020-01-15 00:00:00 7.8 5 Nordeste 10 Norte 0 -- -- 79
2020-01-14 23:00:00 7.7 5 Norte 9 Norte 0 -- -- 80
2020-01-14 22:00:00 9.3 6 Norte 13 Norte 0 -- -- 76
2020-01-14 21:00:00 9.4 6 Norte 13 Noroeste 0 -- -- 81
2020-01-14 20:00:00 10.2 5 Norte 9 Norte 0 -- -- 84
2020-01-14 19:00:00 11.8 4 Nordeste 9 Norte 0 -- -- 79
2020-01-14 18:00:00 14.6 6 Oeste 18 Oeste 0 -- -- 71
2020-01-14 17:00:00 15 8 Oeste 22 Sudoeste 0 -- -- 67
2020-01-14 16:00:00 15.5 14 Sudoeste 24 Sudoeste 0 -- -- 65
2020-01-14 15:00:00 15.5 10 Sudoeste 23 Oeste 0 -- -- 61
2020-01-14 14:00:00 15.9 8 Sudoeste 13 Sudoeste 0 -- -- 55
2020-01-14 13:00:00 15.2 4 Sudoeste 10 Sudoeste 0 -- -- 52
2020-01-14 12:00:00 14.9 6 Sur 12 Sudeste 0 -- -- 58
2020-01-14 11:00:00 13.3 3 Sudoeste 5 Sur 0 -- -- 58
2020-01-14 10:00:00 8.1 0 Calma 6 Nordeste 0 -- -- 72
2020-01-14 09:00:00 4.4 4 Norte 6 Norte 0 -- -- 78
2020-01-14 08:00:00 4.9 2 Nordeste 6 Norte 0 -- -- 71
2020-01-14 07:00:00 7.1 5 Norte 12 Norte 0 -- -- 58
2020-01-14 06:00:00 8.4 6 Norte 17 Norte 0 -- -- 52
2020-01-14 05:00:00 5.7 3 Norte 13 Norte 0 -- -- 73
2020-01-14 04:00:00 6.4 6 Norte 10 Norte 0 -- -- 72
2020-01-14 03:00:00 7.4 3 Noroeste 13 Norte 0 -- -- 73
2020-01-14 02:00:00 7.4 4 Norte 14 Norte 0 -- -- 77
2020-01-14 01:00:00 8.2 8 Norte 13 Norte 0 -- -- 84
2020-01-14 00:00:00 8.3 9 Norte 12 Norte 0 -- -- 88
2020-01-13 23:00:00 8.1 6 Norte 10 Norte 0 -- -- 90
2020-01-13 22:00:00 8.7 5 Norte 9 Norte 0 -- -- 89
2020-01-13 21:00:00 9.3 5 Norte 9 Norte 0 -- -- 87
2020-01-13 20:00:00 9.8 4 Norte 8 Norte 0 -- -- 85
2020-01-13 19:00:00 11.2 2 Nordeste 4 Nordeste 0 -- -- 77
2020-01-13 18:00:00 14.4 3 Sudoeste 10 Sudoeste 0 -- -- 68
2020-01-13 17:00:00 14.9 6 Sudoeste 14 Sudoeste 0 -- -- 68
2020-01-13 16:00:00 16 8 Sudoeste 14 Sudoeste 0 -- -- 64
2020-01-13 15:00:00 15.6 8 Sudoeste 14 Sudoeste 0 -- -- 69
2020-01-13 14:00:00 15.8 9 Sudoeste 14 Sudoeste 0 -- -- 68
2020-01-13 13:00:00 15.8 8 Sur 13 Sur 0 -- -- 65
2020-01-13 12:00:00 15.2 7 Sudoeste 11 Sudoeste 0 -- -- 70
2020-01-13 11:00:00 13.5 3 Oeste 9 Norte 0 -- -- 71
2020-01-13 10:00:00 9.5 7 Norte 11 Norte 0 -- -- 85
2020-01-13 09:00:00 7.6 7 Norte 11 Norte 0 -- -- 89
2020-01-13 08:00:00 7.8 8 Norte 10 Norte 0 -- -- 90
2020-01-13 07:00:00 7.8 5 Norte 14 Norte 0 -- -- 89
2020-01-13 06:00:00 7.7 9 Norte 14 Norte 0 -- -- 87
2020-01-13 05:00:00 7.7 6 Norte 8 Norte 0 -- -- 93
2020-01-13 04:00:00 7.9 5 Norte 8 Norte 0 -- -- 92
2020-01-13 03:00:00 7.8 7 Norte 9 Norte 0 -- -- 91
2020-01-13 02:00:00 8.4 5 Norte 8 Norte 0 -- -- 89
2020-01-13 01:00:00 8.8 5 Norte 9 Norte 0 -- -- 90
2020-01-13 00:00:00 9.3 4 Norte 8 Norte 0 -- -- 92
2020-01-12 23:00:00 8.9 3 Nordeste 5 Nordeste 0 -- -- 91
2020-01-12 22:00:00 9.6 3 Nordeste 5 Norte 0 -- -- 89
2020-01-12 21:00:00 10.2 3 Norte 5 Nordeste 0 -- -- 88
2020-01-12 20:00:00 10.6 3 Nordeste 4 Norte 0 -- -- 86
2020-01-12 19:00:00 12.3 2 Este 3 Nordeste 0 -- -- 80
2020-01-12 18:00:00 15 2 Sudoeste 10 Sudoeste 0 -- -- 71
2020-01-12 17:00:00 16 6 Sudoeste 13 Sudoeste 0 -- -- 70
2020-01-12 16:00:00 16.2 9 Sudoeste 15 Sudoeste 0 -- -- 68
2020-01-12 15:00:00 16.5 9 Sudoeste 17 Sudoeste 0 -- -- 67
2020-01-12 14:00:00 15.9 11 Sudoeste 17 Sudoeste 0 -- -- 69
2020-01-12 13:00:00 15.9 10 Sudoeste 15 Sudoeste 0 -- -- 72
2020-01-12 12:00:00 15.3 9 Sudoeste 13 Sudoeste 0 -- -- 67
2020-01-12 11:00:00 14.8 4 Norte 9 Noroeste 0 -- -- 67
2020-01-12 10:00:00 10.2 7 Norte 11 Norte 0 -- -- 82
2020-01-12 09:00:00 7.5 6 Norte 10 Norte 0 -- -- 87
2020-01-12 08:00:00 8 7 Norte 10 Norte 0 -- -- 84
2020-01-12 07:00:00 8.2 5 Norte 12 Norte 0 -- -- 84
2020-01-12 06:00:00 8.4 6 Norte 10 Norte 0 -- -- 81
2020-01-12 05:00:00 8.3 5 Norte 9 Norte 0 -- -- 84
2020-01-12 04:00:00 8.6 4 Norte 8 Norte 0 -- -- 82
2020-01-12 03:00:00 8.5 6 Norte 10 Norte 0 -- -- 82
2020-01-12 02:00:00 8.5 7 Norte 9 Norte 0 -- -- 84
2020-01-12 01:00:00 9.3 0 Calma 9 Nordeste 0 -- -- 80
2020-01-12 00:00:00 9.7 5 Norte 10 Nordeste 0 -- -- 81
2020-01-11 23:00:00 9.9 4 Norte 8 Norte 0 -- -- 82
2020-01-11 22:00:00 10 3 Norte 6 Nordeste 0 -- -- 81
2020-01-11 21:00:00 10.6 6 Norte 8 Norte 0 -- -- 80
2020-01-11 20:00:00 10.8 4 Nordeste 6 Nordeste 0 -- -- 84
2020-01-11 19:00:00 12.2 3 Norte 4 Sudeste 0 -- -- 78
2020-01-11 18:00:00 14.9 4 Sur 12 Sudoeste 0 -- -- 70
2020-01-11 17:00:00 16.5 8 Sur 14 Sudoeste 0 -- -- 66
2020-01-11 16:00:00 17 9 Sur 14 Sudoeste 0 -- -- 64
2020-01-11 15:00:00 17.1 9 Sudoeste 15 Sudoeste 0 -- -- 61
2020-01-11 14:00:00 17 7 Sur 14 Sur 0 -- -- 63
2020-01-11 13:00:00 16.8 9 Sur 14 Sudoeste 0 -- -- 63
2020-01-11 12:00:00 16.2 8 Noroeste 14 Oeste 0 -- -- 46
2020-01-11 11:00:00 13.8 7 Noroeste 13 Noroeste 0 -- -- 59
2020-01-11 10:00:00 10.3 6 Noroeste 14 Norte 0 -- -- 72
2020-01-11 09:00:00 8.4 7 Norte 12 Norte 0 -- -- 78
2020-01-11 08:00:00 8.9 6 Nordeste 14 Norte 0 -- -- 76
2020-01-11 07:00:00 7.9 5 Norte 13 Norte 0 -- -- 76
2020-01-11 06:00:00 7.9 5 Norte 10 Norte 0 -- -- 75
2020-01-11 05:00:00 8.3 7 Norte 14 Norte 0 -- -- 70
2020-01-11 04:00:00 8.8 9 Norte 12 Norte 0 -- -- 72
2020-01-11 03:00:00 9.2 8 Norte 14 Norte 0 -- -- 63
2020-01-11 02:00:00 9.6 8 Norte 14 Norte 0 -- -- 61
2020-01-11 01:00:00 9.4 6 Norte 12 Norte 0 -- -- 65
2020-01-11 00:00:00 9.7 2 Nordeste 8 Norte 0 -- -- 69
2020-01-10 23:00:00 9.5 3 Nordeste 8 Este 0 -- -- 70
2020-01-10 22:00:00 10.8 4 Este 10 Este 0 -- -- 62
2020-01-10 21:00:00 13.2 6 Este 18 Este 0 -- -- 61
2020-01-10 20:00:00 13.7 6 Este 18 Sudeste 0 -- -- 70
2020-01-10 19:00:00 13.1 9 Este 13 Sudeste 0 -- -- 78
2020-01-10 18:00:00 15.3 8 Sudeste 20 Sudeste 0 -- -- 75
2020-01-10 17:00:00 16.6 8 Sudeste 18 Sudeste 0 -- -- 65
2020-01-10 16:00:00 17.9 8 Sudeste 14 Sudeste 0 -- -- 59
2020-01-10 15:00:00 17.7 7 Sur 13 Sur 0 -- -- 59
2020-01-10 14:00:00 16.9 8 Sur 14 Sur 0 -- -- 67
2020-01-10 13:00:00 16.7 5 Sudoeste 11 Sur 0 -- -- 66
2020-01-10 12:00:00 16.1 6 Sur 10 Sudoeste 0 -- -- 70
2020-01-10 11:00:00 14.4 2 Sudoeste 6 Norte 0 -- -- 70
2020-01-10 10:00:00 10.3 5 Norte 11 Norte 0 -- -- 91
2020-01-10 09:00:00 7.8 2 Este 9 Norte 0 -- -- 93
2020-01-10 08:00:00 7.8 6 Norte 10 Norte 0 -- -- 93
2020-01-10 07:00:00 7.8 4 Este 10 Nordeste 0 -- -- 93
2020-01-10 06:00:00 7.7 5 Norte 11 Norte 0 -- -- 93
2020-01-10 05:00:00 8.1 5 Norte 8 Norte 0 -- -- 92
2020-01-10 04:00:00 8.3 4 Norte 8 Norte 0 -- -- 91
2020-01-10 03:00:00 8.4 4 Norte 11 Norte 0 -- -- 89
2020-01-10 02:00:00 8.6 5 Norte 8 Norte 0 -- -- 89
2020-01-10 01:00:00 10.2 4 Norte 11 Noroeste 0 -- -- 86
2020-01-10 00:00:00 11.8 0 Calma 7 Nordeste 0 -- -- 87
2020-01-09 23:00:00 11.1 4 Norte 8 Norte 0 -- -- 92
2020-01-09 22:00:00 10.1 4 Norte 9 Norte 0 -- -- 90
2020-01-09 21:00:00 10.3 4 Nordeste 8 Norte 0 -- -- 88
2020-01-09 20:00:00 11.2 2 Nordeste 8 Norte 0 -- -- 85
2020-01-09 19:00:00 12.1 3 Nordeste 5 Nordeste 0 -- -- 80
2020-01-09 18:00:00 14.6 2 Sudoeste 9 Sudoeste 0 -- -- 71
2020-01-09 17:00:00 15.6 5 Oeste 12 Sudoeste 0 -- -- 67
2020-01-09 16:00:00 15.9 6 Sur 13 Sudoeste 0 -- -- 67
2020-01-09 15:00:00 16.6 10 Sur 15 Sur 0 -- -- 63
2020-01-09 14:00:00 15.6 6 Sudoeste 11 Sur 0 -- -- 65
2020-01-09 13:00:00 15.4 2 Oeste 5 Sudoeste 0 -- -- 66
2020-01-09 12:00:00 14.4 3 Oeste 5 Oeste 0 -- -- 68
2020-01-09 11:00:00 13.7 2 Noroeste 6 Norte 0 -- -- 70
2020-01-09 10:00:00 12.4 4 Norte 7 Norte 0 -- -- 75
2020-01-09 09:00:00 11.9 3 Norte 9 Norte 0 -- -- 74
2020-01-09 08:00:00 12 6 Norte 12 Norte 0 -- -- 72
2020-01-09 07:00:00 11.8 5 Norte 9 Nordeste 0 -- -- 75
2020-01-09 06:00:00 11.8 4 Nordeste 10 Nordeste 0 -- -- 77
2020-01-09 05:00:00 12.1 3 Norte 6 Norte 0 -- -- 81
2020-01-09 04:00:00 12 4 Nordeste 7 Norte 0 -- -- 80
2020-01-09 03:00:00 11.9 3 Norte 10 Norte 0 -- -- 81
2020-01-09 02:00:00 11.7 5 Norte 8 Norte 0 -- -- 84
2020-01-09 01:00:00 11.7 2 Norte 7 Norte 0 -- -- 87
2020-01-09 00:00:00 11.5 3 Norte 7 Norte 0 -- -- 90
2020-01-08 23:00:00 11.2 3 Norte 6 Norte 0 -- -- 93
2020-01-08 22:00:00 10.5 4 Nordeste 10 Este 0 -- -- 95
2020-01-08 21:00:00 9.7 4 Norte 6 Norte 0 -- -- 92
2020-01-08 20:00:00 9.9 4 Norte 7 Norte 0 -- -- 89
2020-01-08 19:00:00 11.6 3 Nordeste 12 Sudeste 0 -- -- 84
2020-01-08 18:00:00 14 5 Sur 14 Sudeste 0 -- -- 79
2020-01-08 17:00:00 15.2 7 Sur 13 Sur 0 -- -- 75
2020-01-08 16:00:00 15.7 6 Sudoeste 10 Sur 0 -- -- 73
2020-01-08 15:00:00 15.7 8 Sur 14 Sudoeste 0 -- -- 73
2020-01-08 14:00:00 14.9 4 Sur 13 Sur 0 -- -- 76
2020-01-08 13:00:00 15.1 8 Sudoeste 13 Sudoeste 0 -- -- 76
2020-01-08 12:00:00 14.4 5 Sudoeste 12 Oeste 0 -- -- 77
2020-01-08 11:00:00 12.8 3 Sudoeste 5 Norte 0 -- -- 90
2020-01-08 10:00:00 8.8 4 Norte 6 Norte 0 -- -- 97
2020-01-08 09:00:00 6.4 4 Norte 5 Norte 0 -- -- 96
2020-01-08 08:00:00 6.1 4 Norte 6 Norte 0 -- -- 94
2020-01-08 07:00:00 6.3 4 Norte 8 Norte 0 -- -- 92
2020-01-08 06:00:00 7 3 Norte 8 Nordeste 0 -- -- 91
2020-01-08 05:00:00 7.7 5 Nordeste 10 Norte 0 -- -- 92
2020-01-08 04:00:00 7.8 5 Norte 10 Nordeste 0 -- -- 92
2020-01-08 03:00:00 7.6 6 Norte 10 Norte 0 -- -- 91
2020-01-08 02:00:00 8 4 Norte 10 Norte 0 -- -- 89
2020-01-08 01:00:00 8.5 4 Norte 12 Norte 0 -- -- 91
2020-01-08 00:00:00 8.7 5 Norte 10 Norte 0 -- -- 92
2020-01-07 23:00:00 8.9 5 Norte 8 Norte 0 -- -- 93
2020-01-07 22:00:00 9.2 4 Norte 9 Norte 0 -- -- 92
2020-01-07 21:00:00 9.6 6 Norte 8 Norte 0 -- -- 91
2020-01-07 20:00:00 10.2 4 Norte 7 Norte 0 -- -- 88
2020-01-07 19:00:00 11.6 4 Norte 6 Norte 0 -- -- 81
2020-01-07 18:00:00 14.8 3 Sur 9 Sur 0 -- -- 72
2020-01-07 17:00:00 15.8 7 Sur 13 Sudoeste 0 -- -- 71
2020-01-07 16:00:00 16.1 8 Sur 14 Sur 0 -- -- 70
2020-01-07 15:00:00 16.2 7 Sur 14 Sur 0 -- -- 70
2020-01-07 14:00:00 16.3 7 Sur 13 Sur 0 -- -- 67
2020-01-07 13:00:00 16.4 7 Sur 13 Sur 0 -- -- 63
2020-01-07 12:00:00 15.7 4 Sudoeste 8 Sudoeste 0 -- -- 67
2020-01-07 11:00:00 13.8 0 Calma 6 Norte 0 -- -- 73
2020-01-07 10:00:00 9.1 4 Norte 7 Norte 0 -- -- 92
2020-01-07 09:00:00 6.8 4 Nordeste 8 Norte 0 -- -- 92
2020-01-07 08:00:00 7 5 Norte 9 Norte 0 -- -- 91
2020-01-07 07:00:00 7.1 5 Norte 10 Norte 0 -- -- 90
2020-01-07 06:00:00 6.8 6 Norte 11 Norte 0 -- -- 88
2020-01-07 05:00:00 7.6 7 Norte 11 Norte 0 -- -- 87
2020-01-07 04:00:00 7.6 7 Norte 10 Norte 0 -- -- 89
2020-01-07 03:00:00 7.9 4 Norte 11 Norte 0 -- -- 87
2020-01-07 02:00:00 8.7 6 Norte 12 Norte 0 -- -- 86
2020-01-07 01:00:00 9.1 5 Norte 13 Norte 0 -- -- 86
2020-01-07 00:00:00 9.4 6 Nordeste 10 Norte 0 -- -- 88
2020-01-06 23:00:00 9.3 5 Norte 7 Norte 0 -- -- 86
2020-01-06 22:00:00 10 3 Nordeste 5 Este 0 -- -- 81
2020-01-06 21:00:00 12.1 4 Este 5 Este 0 -- -- 78
2020-01-06 20:00:00 12.6 3 Norte 4 Norte 0 -- -- 78
2020-01-06 19:00:00 12.9 0 Calma 3 Norte 0 -- -- 77
2020-01-06 18:00:00 14.6 2 Sudeste 10 Sur 0 -- -- 66
2020-01-06 17:00:00 15.5 7 Sur 15 Sudoeste 0 -- -- 65
2020-01-06 16:00:00 16 9 Sur 15 Sur 0 -- -- 67
2020-01-06 15:00:00 15.9 9 Sur 17 Sur 0 -- -- 68
2020-01-06 14:00:00 16.1 10 Sur 15 Sur 0 -- -- 66
2020-01-06 13:00:00 16.5 7 Sur 13 Sur 0 -- -- 63
2020-01-06 12:00:00 16 5 Sudoeste 9 Sudoeste 0 -- -- 65
2020-01-06 11:00:00 14.3 5 Norte 10 Norte 0 -- -- 70
2020-01-06 10:00:00 10.5 7 Norte 10 Norte 0 -- -- 80